Ottumwa Regional Airport Ottumwa US
ICAO: KOTM
IATA: OTM
Category: Medium
Scheduled Services: No

Elevation: 845 ft
TransAlt. 18000 ft.

Airport Communications:
ASOS:124.175
CHICAGO CNTR:118.15
FORT DODGE RDO:122.4
CTAF/UNICOM:123

KOTM Zoom In..

If you have problems with the map follow the link
https://www.worldairports.se/pages/airport.php?
ICAO=KOTM

Runways:

(A) RW 04 length 4600 ft width 100 ft
---- / hdg 42

(B) RW 13 length 5885 ft width 150 ft
---- / hdg 132

(C) RW 22 length 4600 ft width 100 ft
---- / hdg 222

(D) RW 31 length 5885 ft width 150 ft
ILS 109.50 / hdg 312

Location; KOTM
Day. 19 / Time. 22.49 Zulu
* Altimeter: 29.82
* Temperature: 14° c. 57.2°f.
* Wind from: 300° Speed 17 kn with Gusts up to 25 kn.
Dewpoint: 10° c.
Visibility: 10 Statute Miles.
Clouds: Scattered 2200 ft.
Clouds: Broken 3000 ft.
Clouds: Overcast 5500 ft.

KOTM 192249Z AUTO 30017G25KT 10SM SCT022 BKN030 OVC055 14/10 A2982 RMK AO2 PK WND 30027/2201


Wind From 300°
Speed 17 kn.

 
 
jpsmedia.com for Web Design worldairports.se 2019   terms of use